.
WxDataArchive / Data Records for 2008-04-30
2008-04-29 April 2008 2008-05-01

Data Records for Wednesday, 30 April 2008

Time	Temp	Chill	HIndex	Humid	Dewpt	 Wind 	HiWind	WindDir	Rain 	Barom 
-----	----	-----	------	-----	-----	------	------	-------	-----	----- 
00:00	34.6	34.6	34.6	59	21.8	0	0	---	0.00	30.067 
00:05	34.3	34.3	34.3	60	21.9	0	0	---	0.00	30.067 
00:10	34.1	34.1	34.1	60	21.7	0	0	---	0.00	30.067 
00:15	33.8	33.8	33.8	60	21.4	0	0	---	0.00	30.067 
00:20	33.7	33.7	33.7	61	21.7	0	0	---	0.00	30.067 
00:25	33.4	33.4	33.4	62	21.8	0	0	---	0.00	30.067 
00:30	32.9	32.9	32.9	62	21.3	0	0	---	0.00	30.067 
00:35	32.5	32.5	32.5	63	21.3	0	0	---	0.00	30.066 
00:40	32.2	32.2	32.2	64	21.4	0	0	---	0.00	30.068 
00:45	31.9	31.9	31.9	65	21.5	0	0	---	0.00	30.068 
00:50	31.8	31.8	31.8	66	21.8	0	0	---	0.00	30.068 
00:55	31.6	31.6	31.6	67	21.9	0	0	---	0.00	30.069 
01:00	31.5	31.5	31.5	68	22.2	0	0	---	0.00	30.068 
01:05	31.3	31.3	31.3	68	22.0	0	0	---	0.00	30.067 
01:10	31.2	31.2	31.2	68	21.9	0	0	---	0.00	30.067 
01:15	31.2	31.2	31.2	69	22.2	0	0	---	0.00	30.069 
01:20	31.0	31.0	31.0	69	22.0	0	0	---	0.00	30.069 
01:25	30.7	30.7	30.7	69	21.8	0	0	---	0.00	30.070 
01:30	30.6	30.6	30.6	70	22.0	0	0	---	0.00	30.069 
01:35	30.4	30.4	30.4	70	21.8	0	0	---	0.00	30.069 
01:40	30.1	30.1	30.1	70	21.5	0	0	---	0.00	30.067 
01:45	30.0	30.0	30.0	71	21.8	0	0	---	0.00	30.065 
01:50	30.0	30.0	30.0	72	22.1	0	0	---	0.00	30.066 
01:55	30.0	30.0	30.0	72	22.1	0	0	---	0.00	30.065 
02:00	30.0	30.0	30.0	72	22.1	0	0	---	0.00	30.063 
02:05	29.8	29.8	29.8	72	21.9	0	0	---	0.00	30.065 
02:10	29.7	29.7	29.7	72	21.8	0	0	---	0.00	30.063 
02:15	29.5	29.5	29.5	73	21.9	0	0	---	0.00	30.063 
02:20	29.4	29.4	29.4	73	21.8	0	0	---	0.00	30.063 
02:25	29.3	29.3	29.3	73	21.7	0	0	---	0.00	30.066 
02:30	29.1	29.1	29.1	73	21.5	0	0	---	0.00	30.066 
02:35	29.0	29.0	29.0	74	21.8	0	0	---	0.00	30.065 
02:40	29.0	29.0	29.0	74	21.8	0	0	---	0.00	30.066 
02:45	28.8	28.8	28.8	75	21.9	0	0	---	0.00	30.070 
02:50	28.8	28.8	28.8	75	21.9	0	0	---	0.00	30.069 
02:55	28.7	28.7	28.7	75	21.8	0	0	---	0.00	30.067 
03:00	28.7	28.7	28.7	76	22.1	0	0	---	0.00	30.069 
03:05	28.7	28.7	28.7	76	22.1	0	0	---	0.00	30.068 
03:10	28.7	28.7	28.7	77	22.4	0	0	---	0.00	30.068 
03:15	28.5	28.5	28.5	77	22.2	0	0	---	0.00	30.069 
03:20	28.4	28.4	28.4	77	22.1	0	0	---	0.00	30.071 
03:25	28.2	28.2	28.2	78	22.2	0	0	---	0.00	30.072 
03:30	28.1	28.1	28.1	78	22.1	0	0	---	0.00	30.072 
03:35	28.1	28.1	28.1	79	22.4	0	0	---	0.00	30.072 
03:40	27.9	27.9	27.9	79	22.2	0	0	---	0.00	30.070 
03:45	27.9	27.9	27.9	80	22.5	0	0	---	0.00	30.072 
03:50	27.8	27.8	27.8	80	22.4	0	0	---	0.00	30.073 
03:55	27.6	27.6	27.6	80	22.3	0	0	---	0.00	30.073 
04:00	27.5	27.5	27.5	81	22.4	0	0	---	0.00	30.074 
04:05	27.5	27.5	27.5	81	22.4	0	0	---	0.00	30.074 
04:10	27.5	27.5	27.5	81	22.4	0	0	---	0.00	30.072 
04:15	27.5	27.5	27.5	81	22.4	0	0	---	0.00	30.072 
04:20	27.3	27.3	27.3	81	22.3	0	0	---	0.00	30.075 
04:25	27.3	27.3	27.3	82	22.5	0	0	---	0.00	30.076 
04:30	27.3	27.3	27.3	82	22.5	0	0	---	0.00	30.075 
04:35	27.3	27.3	27.3	82	22.5	0	0	---	0.00	30.075 
04:40	27.2	27.2	27.2	83	22.7	0	0	---	0.00	30.076 
04:45	27.2	27.2	27.2	83	22.7	0	0	---	0.00	30.074 
04:50	27.2	27.2	27.2	83	22.7	0	0	---	0.00	30.074 
04:55	27.0	27.0	27.0	83	22.5	0	0	---	0.00	30.075 
05:00	27.0	27.0	27.0	83	22.5	0	0	---	0.00	30.075 
05:05	26.9	26.9	26.9	83	22.4	0	0	---	0.00	30.075 
05:10	26.9	26.9	26.9	83	22.4	0	0	---	0.00	30.075 
05:15	26.9	26.9	26.9	83	22.4	0	0	---	0.00	30.075 
05:20	26.7	26.7	26.7	83	22.2	0	0	---	0.00	30.076 
05:25	26.7	26.7	26.7	83	22.2	0	0	---	0.00	30.076 
05:30	26.7	26.7	26.7	84	22.5	0	0	---	0.00	30.078 
05:35	26.7	26.7	26.7	84	22.5	0	0	---	0.00	30.077 
05:40	26.6	26.6	26.6	84	22.4	0	0	---	0.00	30.078 
05:45	26.6	26.6	26.6	84	22.4	0	0	---	0.00	30.078 
05:50	26.6	26.6	26.6	84	22.4	0	0	---	0.00	30.079 
05:55	26.6	26.6	26.6	84	22.4	0	0	---	0.00	30.081 
06:00	26.6	26.6	26.6	84	22.4	0	0	---	0.00	30.082 
06:05	26.6	26.6	26.6	84	22.4	0	0	---	0.00	30.084 
06:10	26.6	26.6	26.6	85	22.7	0	0	---	0.00	30.084 
06:15	26.7	26.7	26.7	85	22.8	0	0	---	0.00	30.085 
06:20	26.9	26.9	26.9	85	23.0	0	0	---	0.00	30.086 
06:25	27.2	27.2	27.2	85	23.3	0	0	---	0.00	30.086 
06:30	27.6	27.6	27.6	86	24.0	0	0	---	0.00	30.088 
06:35	28.2	28.2	28.2	86	24.6	0	0	---	0.00	30.092 
06:40	29.0	29.0	29.0	85	25.1	0	0	---	0.00	30.094 
06:45	29.8	29.8	29.8	84	25.6	0	0	---	0.00	30.093 
06:50	30.6	30.6	30.6	83	26.1	0	0	---	0.00	30.094 
06:55	31.5	31.5	31.5	81	26.4	0	0	---	0.00	30.095 
07:00	32.4	32.4	32.4	79	26.6	0	0	---	0.00	30.097 
07:05	33.1	33.1	33.1	76	26.4	0	1	315	0.00	30.099 
07:10	34.0	34.0	34.0	72	25.9	0	1	315	0.00	30.097 
07:15	35.2	35.2	35.2	68	25.7	0	0	---	0.00	30.097 
07:20	36.3	36.3	36.3	65	25.7	0	0	---	0.00	30.099 
07:25	37.3	37.3	37.3	60	24.7	0	0	---	0.00	30.096 
07:30	38.0	38.0	38.0	55	23.3	0	1	315	0.00	30.096 
07:35	38.9	38.9	38.9	50	21.9	0	1	315	0.00	30.094 
07:40	39.9	39.9	39.9	51	23.3	0	1	315	0.00	30.095 
07:45	40.3	40.3	40.3	50	23.2	0	1	315	0.00	30.094 
07:50	40.6	40.6	40.6	47	22.0	0	2	315	0.00	30.090 
07:55	40.6	40.6	40.6	47	22.0	0	1	315	0.00	30.089 
08:00	40.9	40.9	40.9	47	22.2	0	1	315	0.00	30.092 
08:05	41.2	41.2	41.2	48	23.0	0	1	315	0.00	30.096 
08:10	41.9	41.9	41.9	48	23.7	0	1	315	0.00	30.095 
08:15	42.6	42.6	42.6	44	22.2	1	3	45	0.00	30.097 
08:20	42.9	42.9	42.9	43	22.0	1	4	45	0.00	30.098 
08:25	42.8	42.8	42.8	41	20.7	0	2	68	0.00	30.098 
08:30	43.1	43.1	43.1	44	22.7	0	1	68	0.00	30.099 
08:35	43.5	43.5	43.5	39	20.2	1	3	68	0.00	30.100 
08:40	43.3	43.3	43.3	35	17.5	1	4	90	0.00	30.100 
08:45	43.5	43.5	43.5	40	20.8	1	3	90	0.00	30.097 
08:50	43.5	43.5	43.5	42	21.9	1	4	90	0.00	30.092 
08:55	43.8	43.8	43.8	39	20.5	1	3	90	0.00	30.090 
09:00	44.2	44.2	44.2	40	21.4	1	3	90	0.00	30.086 
09:05	44.5	44.5	44.5	39	21.1	1	4	90	0.00	30.088 
09:10	44.9	44.9	44.9	36	19.6	1	4	90	0.00	30.087 
09:15	44.9	44.9	44.9	35	18.9	2	4	90	0.00	30.087 
09:20	44.9	44.9	44.9	36	19.6	1	4	90	0.00	30.089 
09:25	45.1	45.1	45.1	39	21.6	1	2	90	0.00	30.087 
09:30	45.8	45.8	45.8	33	18.4	0	1	90	0.00	30.086 
09:35	46.1	46.1	46.1	34	19.3	1	3	248	0.00	30.086 
09:40	46.7	46.7	46.7	37	21.8	1	3	135	0.00	30.086 
09:45	47.0	47.0	47.0	36	21.4	1	5	248	0.00	30.087 
09:50	46.8	46.8	46.8	36	21.3	1	2	248	0.00	30.087 
09:55	47.1	47.1	47.1	32	18.8	1	2	112	0.00	30.086 
10:00	47.6	47.6	47.6	31	18.5	1	4	112	0.00	30.084 
10:05	47.7	47.7	47.7	36	22.1	1	3	112	0.00	30.087 
10:10	47.7	47.7	47.7	35	21.4	1	4	112	0.00	30.087 
10:15	48.2	48.2	48.2	37	23.2	1	4	112	0.00	30.085 
10:20	48.0	48.0	48.0	35	21.7	1	3	90	0.00	30.085 
10:25	48.6	48.6	48.6	38	24.2	0	3	112	0.00	30.085 
10:30	49.4	49.4	49.4	37	24.2	1	3	112	0.00	30.082 
10:35	49.6	49.6	49.6	35	23.1	1	3	112	0.00	30.081 
10:40	49.6	49.6	49.6	34	22.4	2	7	90	0.00	30.081 
10:45	49.8	49.8	49.8	32	21.1	1	4	90	0.00	30.079 
10:50	49.5	49.5	49.5	37	24.3	2	5	90	0.00	30.078 
10:55	49.4	49.4	49.4	35	22.9	1	3	0	0.00	30.079 
11:00	49.8	49.8	49.8	36	23.9	0	1	315	0.00	30.076 
11:05	50.4	50.4	50.4	37	25.1	1	4	270	0.00	30.076 
11:10	50.4	50.4	50.4	39	26.4	1	4	248	0.00	30.073 
11:15	50.2	50.2	50.2	34	22.9	1	2	90	0.00	30.070 
11:20	50.2	50.2	50.2	37	24.9	2	5	90	0.00	30.068 
11:25	50.7	50.7	50.7	39	26.7	1	3	248	0.00	30.064 
11:30	50.8	50.8	50.8	35	24.1	1	4	248	0.00	30.063 
11:35	51.3	51.3	51.3	35	24.6	1	3	248	0.00	30.061 
11:40	51.6	51.6	51.6	37	26.2	2	7	112	0.00	30.060 
11:45	51.7	51.7	51.7	38	26.9	1	6	90	0.00	30.060 
11:50	51.9	51.9	51.9	38	27.1	1	5	270	0.00	30.061 
11:55	52.3	52.3	52.3	35	25.5	1	4	90	0.00	30.059 
12:00	52.2	52.2	52.2	39	28.0	1	4	112	0.00	30.055 
12:05	52.3	52.3	52.3	37	26.8	1	4	270	0.00	30.055 
12:10	52.9	52.9	52.9	43	31.0	1	3	270	0.00	30.052 
12:15	52.8	52.8	52.8	40	29.2	1	5	270	0.00	30.051 
12:20	53.5	53.5	53.5	39	29.2	1	4	270	0.00	30.050 
12:25	53.9	53.9	53.9	41	30.7	1	4	270	0.00	30.046 
12:30	54.4	54.4	54.4	42	31.8	1	5	248	0.00	30.042 
12:35	53.9	53.9	53.9	34	26.2	0	3	90	0.00	30.038 
12:40	54.1	54.1	54.1	37	28.4	0	2	90	0.00	30.036 
12:45	54.5	54.5	54.5	42	31.9	1	6	270	0.00	30.034 
12:50	54.5	54.5	54.5	37	28.8	2	4	68	0.00	30.033 
12:55	54.7	54.7	54.7	45	33.8	1	3	270	0.00	30.032 
13:00	54.7	54.7	54.7	44	33.2	1	5	270	0.00	30.031 
13:05	54.5	54.5	54.5	37	28.8	0	2	0	0.00	30.031 
13:10	54.7	54.7	54.7	42	32.1	1	4	338	0.00	30.032 
13:15	54.7	54.7	54.7	36	28.3	2	4	112	0.00	30.025 
13:20	55.4	55.4	55.4	45	34.4	1	4	248	0.00	30.022 
13:25	55.3	55.3	55.3	38	30.1	1	6	270	0.00	30.021 
13:30	55.3	55.3	55.3	37	29.5	1	5	112	0.00	30.020 
13:35	55.3	55.3	55.3	42	32.6	1	3	112	0.00	30.018 
13:40	55.6	55.6	55.6	41	32.3	1	4	270	0.00	30.014 
13:45	56.0	56.0	56.0	40	32.0	1	3	90	0.00	30.012 
13:50	56.3	56.3	56.3	44	34.7	1	5	248	0.00	30.010 
13:55	56.3	56.3	56.3	40	32.3	1	4	248	0.00	30.006 
14:00	56.6	56.6	56.6	39	31.9	1	4	248	0.00	30.004 
14:05	56.7	56.7	56.7	40	32.7	1	4	270	0.00	30.003 
14:10	56.9	56.9	56.9	40	32.8	1	3	90	0.00	30.002 
14:15	57.0	57.0	57.0	42	34.1	1	3	45	0.00	30.001 
14:20	56.7	56.7	56.7	40	32.7	1	5	270	0.00	29.998 
14:25	56.9	56.9	56.9	40	32.8	1	3	68	0.00	29.995 
14:30	56.7	56.7	56.7	36	30.0	2	7	248	0.00	29.993 
14:35	56.9	56.9	56.9	42	34.0	1	4	270	0.00	29.994 
14:40	57.0	57.0	57.0	41	33.5	1	4	112	0.00	29.988 
14:45	56.9	56.9	56.9	35	29.5	1	4	112	0.00	29.988 
14:50	56.7	56.7	56.7	42	33.9	1	4	292	0.00	29.987 
14:55	57.2	57.2	57.2	42	34.3	1	4	248	0.00	29.987 
15:00	57.0	57.0	57.0	38	31.6	1	3	135	0.00	29.986 
15:05	57.2	57.2	57.2	39	32.5	2	4	90	0.00	29.987 
15:10	57.5	57.5	57.5	38	32.1	1	3	90	0.00	29.987 
15:15	57.8	57.8	57.8	37	31.7	0	2	248	0.00	29.982 
15:20	58.3	58.3	58.3	40	34.1	1	4	90	0.00	29.979 
15:25	58.1	58.1	58.1	37	32.0	1	5	90	0.00	29.976 
15:30	58.1	58.1	58.1	41	34.5	2	6	112	0.00	29.973 
15:35	58.1	58.1	58.1	34	29.9	1	3	315	0.00	29.972 
15:40	58.3	58.3	58.3	38	32.8	1	3	0	0.00	29.970 
15:45	58.4	58.4	58.4	37	32.2	2	9	112	0.00	29.970 
15:50	58.3	58.3	58.3	37	32.1	2	6	112	0.00	29.969 
15:55	57.8	57.8	57.8	40	33.6	1	4	90	0.00	29.965 
16:00	57.8	57.8	57.8	37	31.7	2	4	90	0.00	29.964 
16:05	58.0	58.0	58.0	37	31.9	1	3	90	0.00	29.966 
16:10	57.8	57.8	57.8	37	31.7	2	5	112	0.00	29.962 
16:15	58.1	58.1	58.1	37	32.0	1	3	135	0.00	29.957 
16:20	58.3	58.3	58.3	37	32.1	1	3	112	0.00	29.956 
16:25	58.7	58.7	58.7	42	35.7	1	6	90	0.00	29.953 
16:30	58.7	58.7	58.7	38	33.2	2	4	112	0.00	29.949 
16:35	58.9	58.9	58.9	38	33.3	1	3	112	0.00	29.946 
16:40	58.9	58.9	58.9	39	34.0	2	6	248	0.00	29.943 
16:45	58.9	58.9	58.9	41	35.2	1	4	112	0.00	29.941 
16:50	58.9	58.9	58.9	39	34.0	2	4	90	0.00	29.940 
16:55	58.6	58.6	58.6	39	33.7	1	5	112	0.00	29.940 
17:00	58.4	58.4	58.4	36	31.6	1	4	112	0.00	29.941 
17:05	58.3	58.3	58.3	39	33.5	1	6	112	0.00	29.940 
17:10	58.3	58.3	58.3	38	32.8	3	6	90	0.00	29.938 
17:15	58.3	58.3	58.3	39	33.5	2	7	90	0.00	29.937 
17:20	58.4	58.4	58.4	39	33.5	1	3	135	0.00	29.934 
17:25	58.6	58.6	58.6	39	33.7	2	5	90	0.00	29.928 
17:30	58.6	58.6	58.6	38	33.1	1	5	90	0.00	29.924 
17:35	58.6	58.6	58.6	39	33.7	1	4	135	0.00	29.925 
17:40	58.6	58.6	58.6	38	33.1	1	4	112	0.00	29.925 
17:45	58.6	58.6	58.6	38	33.1	1	4	112	0.00	29.924 
17:50	58.6	58.6	58.6	39	33.7	1	3	112	0.00	29.924 
17:55	58.6	58.6	58.6	39	33.7	1	3	68	0.00	29.923 
18:00	58.4	58.4	58.4	39	33.5	1	4	90	0.00	29.924 
18:05	58.3	58.3	58.3	39	33.5	0	3	112	0.00	29.918 
18:10	58.3	58.3	58.3	39	33.5	1	5	90	0.00	29.919 
18:15	58.1	58.1	58.1	39	33.3	1	4	90	0.00	29.918 
18:20	58.1	58.1	58.1	40	33.9	0	3	135	0.00	29.918 
18:25	57.8	57.8	57.8	41	34.3	1	2	90	0.00	29.917 
18:30	57.8	57.8	57.8	41	34.3	0	2	90	0.00	29.918 
18:35	57.8	57.8	57.8	41	34.3	1	4	90	0.00	29.917 
18:40	57.8	57.8	57.8	42	34.9	0	2	135	0.00	29.917 
18:45	57.8	57.8	57.8	43	35.5	1	2	135	0.00	29.915 
18:50	57.8	57.8	57.8	42	34.9	1	4	112	0.00	29.915 
18:55	57.8	57.8	57.8	41	34.3	1	2	112	0.00	29.912 
19:00	57.8	57.8	57.8	42	34.9	1	3	112	0.00	29.910 
19:05	57.6	57.6	57.6	43	35.3	1	5	112	0.00	29.904 
19:10	57.6	57.6	57.6	42	34.7	2	5	90	0.00	29.905 
19:15	57.5	57.5	57.5	43	35.2	2	4	112	0.00	29.901 
19:20	57.3	57.3	57.3	44	35.6	1	3	112	0.00	29.900 
19:25	57.2	57.2	57.2	45	36.1	1	4	112	0.00	29.900 
19:30	56.9	56.9	56.9	45	35.8	1	3	112	0.00	29.899 
19:35	56.6	56.6	56.6	46	36.1	1	2	112	0.00	29.900 
19:40	56.3	56.3	56.3	46	35.8	1	4	90	0.00	29.900 
19:45	56.2	56.2	56.2	48	36.8	1	2	90	0.00	29.903 
19:50	56.0	56.0	56.0	49	37.1	0	2	90	0.00	29.902 
19:55	56.0	56.0	56.0	48	36.6	1	4	112	0.00	29.903 
20:00	56.0	56.0	56.0	48	36.6	1	3	112	0.00	29.905 
20:05	56.0	56.0	56.0	48	36.6	1	2	112	0.00	29.899 
20:10	56.0	56.0	56.0	48	36.6	1	2	112	0.00	29.901 
20:15	56.0	56.0	56.0	48	36.6	2	3	90	0.00	29.904 
20:20	56.0	56.0	56.0	49	37.1	2	4	90	0.00	29.906 
20:25	56.0	56.0	56.0	49	37.1	1	4	90	0.00	29.908 
20:30	55.9	55.9	55.9	50	37.5	1	4	90	0.00	29.910 
20:35	55.7	55.7	55.7	50	37.3	2	4	112	0.00	29.910 
20:40	55.4	55.4	55.4	50	37.1	2	6	112	0.00	29.910 
20:45	55.3	55.3	55.3	51	37.5	2	3	90	0.00	29.912 
20:50	55.1	55.1	55.1	51	37.3	2	5	90	0.00	29.913 
20:55	55.0	55.0	55.0	52	37.7	2	6	112	0.00	29.914 
21:00	55.0	55.0	55.0	52	37.7	2	5	90	0.00	29.915 
21:05	54.8	54.8	54.8	52	37.5	2	4	90	0.00	29.914 
21:10	54.5	54.5	54.5	52	37.2	2	4	90	0.00	29.915 
21:15	54.2	54.2	54.2	53	37.4	1	3	112	0.00	29.914 
21:20	54.1	54.1	54.1	53	37.4	2	6	112	0.00	29.915 
21:25	53.8	53.8	53.8	54	37.5	1	3	112	0.00	29.917 
21:30	53.6	53.6	53.6	55	37.8	1	3	112	0.00	29.917 
21:35	53.5	53.5	53.5	55	37.7	1	3	112	0.00	29.916 
21:40	53.2	53.2	53.2	56	37.9	1	3	112	0.00	29.913 
21:45	53.1	53.1	53.1	57	38.3	1	2	112	0.00	29.914 
21:50	52.8	52.8	52.8	57	38.0	1	3	112	0.00	29.913 
21:55	52.5	52.5	52.5	58	38.2	1	3	112	0.00	29.913 
22:00	52.2	52.2	52.2	58	37.9	1	4	90	0.00	29.912 
22:05	52.0	52.0	52.0	59	38.1	2	3	90	0.00	29.910 
22:10	51.9	51.9	51.9	59	38.0	1	2	90	0.00	29.907 
22:15	51.7	51.7	51.7	59	37.8	1	3	90	0.00	29.908 
22:20	51.6	51.6	51.6	60	38.2	1	4	90	0.00	29.908 
22:25	51.4	51.4	51.4	59	37.6	2	5	112	0.00	29.909 
22:30	51.4	51.4	51.4	60	38.0	2	5	112	0.00	29.904 
22:35	51.1	51.1	51.1	60	37.7	1	3	112	0.00	29.902 
22:40	51.0	51.0	51.0	61	38.0	1	3	90	0.00	29.901 
22:45	50.7	50.7	50.7	61	37.7	1	4	90	0.00	29.897 
22:50	50.5	50.5	50.5	62	38.0	1	3	90	0.00	29.896 
22:55	50.4	50.4	50.4	62	37.9	1	3	90	0.00	29.895 
23:00	50.2	50.2	50.2	62	37.7	1	2	90	0.00	29.896 
23:05	50.1	50.1	50.1	63	38.0	1	2	90	0.00	29.894 
23:10	49.8	49.8	49.8	63	37.7	1	3	90	0.00	29.894 
23:15	49.6	49.6	49.6	64	37.9	1	2	90	0.00	29.895 
23:20	49.5	49.5	49.5	64	37.8	1	2	90	0.00	29.895 
23:25	49.4	49.4	49.4	65	38.1	1	3	90	0.00	29.896 
23:30	49.2	49.2	49.2	65	37.9	0	2	90	0.00	29.897 
23:35	48.9	48.9	48.9	66	38.0	0	2	90	0.00	29.898 
23:40	48.6	48.6	48.6	66	37.8	0	3	90	0.00	29.897 
23:45	48.5	48.5	48.5	67	38.0	0	2	90	0.00	29.896 
23:50	48.3	48.3	48.3	67	37.9	0	2	90	0.00	29.896 
23:55	48.2	48.2	48.2	68	38.1	1	2	90	0.00	29.896 

CoCoRaHS
IN-AL-39
A2 Web Hosting
Creative Commons License
GoDaddy
Look for:

loaded 2017-12-13 02:22:53 • last modified 2010-11-18 10:43:29
Privacy PolicyDisclaimer
• wx.awcolley.com is powered by PmWiki v.2002016 •
• all content (unless otherwise noted) © 2017 A W Colley